Time;durP1;ratioP1;P1;durP2;ratioP2;P2;SDS_P1;SDS_P2;PMS_P1;PMS_P2;Temp;Humidity;BMP_temperature;BMP_pressure;BME280_temperature;BME280_humidity;BME280_pressure;Samples;Min_cycle;Max_cycle;Signal;HPM_P1;HPM_P2
2022/10/15 00:00:08;;;;;;;10.10;5.10;;;;;;;12.63;94.45;94911.53;5110575;28;20207;-77
2022/10/15 00:02:35;;;;;;;8.37;5.43;;;;;;;12.74;94.70;94923.00;5110966;28;20527;-78
2022/10/15 00:05:03;;;;;;;7.23;5.10;;;;;;;12.74;94.62;94915.97;5110151;28;20222;-77
2022/10/15 00:07:29;;;;;;;7.13;5.03;;;;;;;12.74;94.30;94915.19;5111228;28;20646;-77
2022/10/15 00:09:56;;;;;;;7.37;5.40;;;;;;;12.84;93.41;94915.44;5109717;28;20677;-78
2022/10/15 00:12:23;;;;;;;8.37;4.80;;;;;;;12.84;93.77;94913.59;5109999;28;20226;-77
2022/10/15 00:14:51;;;;;;;6.53;5.00;;;;;;;12.86;93.17;94914.19;5109695;28;20206;-77
2022/10/15 00:17:18;;;;;;;6.23;4.80;;;;;;;12.89;93.53;94907.72;5109362;28;20212;-78
2022/10/15 00:19:45;;;;;;;9.17;5.13;;;;;;;12.84;93.62;94910.22;5109477;28;20283;-78
2022/10/15 00:22:11;;;;;;;11.07;5.00;;;;;;;12.91;93.30;94911.69;5110421;28;20548;-78
2022/10/15 00:24:38;;;;;;;9.90;5.13;;;;;;;12.94;93.14;94908.63;5110136;28;20736;-77
2022/10/15 00:27:05;;;;;;;7.60;5.30;;;;;;;12.74;94.48;94896.94;5109782;28;20200;-78
2022/10/15 00:29:32;;;;;;;8.17;5.03;;;;;;;12.44;95.61;94905.59;5110325;28;20211;-77
2022/10/15 00:32:00;;;;;;;6.57;4.90;;;;;;;12.17;98.61;94893.16;5109868;28;20683;-78
2022/10/15 00:34:27;;;;;;;12.07;5.13;;;;;;;12.15;100.00;94900.41;5109818;28;20196;-77
2022/10/15 00:36:53;;;;;;;6.53;4.90;;;;;;;12.19;99.95;94896.34;5110028;28;20219;-77
2022/10/15 00:39:20;;;;;;;7.80;5.33;;;;;;;12.25;99.43;94892.84;5109512;28;20208;-78
2022/10/15 00:41:47;;;;;;;9.77;5.50;;;;;;;12.42;98.69;94893.81;5110082;28;20204;-78
2022/10/15 00:44:49;;;;;;;7.43;5.23;;;;;;;12.55;98.26;94887.59;5109804;28;20662;-79
2022/10/15 00:47:20;;;;;;;8.77;5.00;;;;;;;12.68;97.57;94892.59;5108086;28;20223;-78
2022/10/15 00:49:51;;;;;;;8.17;5.20;;;;;;;12.77;96.91;94879.03;5107736;28;20670;-78
2022/10/15 00:52:23;;;;;;;12.13;5.23;;;;;;;12.81;96.81;94884.59;5108272;28;20204;-77
2022/10/15 00:54:57;;;;;;;8.17;5.10;;;;;;;12.79;96.50;94884.00;5109286;28;20277;-77
2022/10/15 00:57:25;;;;;;;8.57;5.40;;;;;;;12.83;96.60;94877.31;5110103;28;20199;-77
2022/10/15 00:59:56;;;;;;;10.67;5.20;;;;;;;12.84;96.87;94881.53;5109213;28;20215;-77
2022/10/15 01:02:24;;;;;;;8.07;5.23;;;;;;;12.69;97.95;94881.16;5108146;28;20206;-78
2022/10/15 01:04:52;;;;;;;6.80;5.43;;;;;;;12.78;97.30;94887.66;5109136;28;20721;-78
2022/10/15 01:07:19;;;;;;;9.13;5.53;;;;;;;12.88;97.29;94885.25;5109031;28;20222;-77
2022/10/15 01:09:46;;;;;;;10.50;5.27;;;;;;;12.77;97.79;94881.63;5108653;28;20203;-78
2022/10/15 01:12:23;;;;;;;10.07;5.07;;;;;;;12.82;97.75;94876.53;5108022;28;20294;-77
2022/10/15 01:15:02;;;;;;;8.20;5.70;;;;;;;12.83;97.70;94885.16;5108760;28;20213;-77
2022/10/15 01:17:35;;;;;;;7.43;5.57;;;;;;;12.91;97.68;94883.00;5106216;28;20196;-78
2022/10/15 01:20:44;;;;;;;7.00;5.63;;;;;;;12.78;98.37;94883.22;5105133;28;20203;-77
2022/10/15 01:23:31;;;;;;;10.33;5.90;;;;;;;12.46;99.65;94867.09;5097079;28;20204;-77
2022/10/15 01:26:13;;;;;;;8.40;5.63;;;;;;;12.00;100.00;94874.75;5104267;28;20613;-77
2022/10/15 01:28:53;;;;;;;9.43;6.60;;;;;;;11.87;100.00;94878.31;5105727;28;20211;-77
2022/10/15 01:31:29;;;;;;;8.80;6.03;;;;;;;11.83;100.00;94866.75;5108076;28;20913;-77
2022/10/15 01:34:02;;;;;;;9.17;6.00;;;;;;;12.06;100.00;94873.09;5105122;28;20198;-77
2022/10/15 01:36:36;;;;;;;9.97;6.03;;;;;;;12.20;100.00;94887.50;5101703;28;20207;-77
2022/10/15 01:39:11;;;;;;;10.17;5.67;;;;;;;12.31;100.00;94878.94;5108370;28;20200;-78
2022/10/15 01:41:43;;;;;;;10.33;5.93;;;;;;;12.34;100.00;94874.06;5108712;28;20223;-78
2022/10/15 01:44:15;;;;;;;11.83;6.20;;;;;;;12.44;100.00;94874.31;5108177;28;20308;-79
2022/10/15 01:46:47;;;;;;;11.00;5.73;;;;;;;12.54;100.00;94879.00;5108607;28;20269;-76
2022/10/15 01:49:20;;;;;;;7.97;5.80;;;;;;;12.52;100.00;94879.19;5106083;28;20565;-78
2022/10/15 01:51:49;;;;;;;9.70;5.80;;;;;;;12.59;100.00;94868.69;5108518;28;20661;-78
2022/10/15 01:54:19;;;;;;;9.53;5.87;;;;;;;12.60;100.00;94866.88;5108506;28;20200;-77
2022/10/15 01:56:49;;;;;;;12.43;6.37;;;;;;;12.45;100.00;94867.28;5108740;28;20207;-77
2022/10/15 01:59:18;;;;;;;12.03;6.50;;;;;;;12.51;100.00;94875.03;5108004;28;20654;-78
2022/10/15 02:01:47;;;;;;;10.03;6.20;;;;;;;12.60;100.00;94878.09;5108478;28;20208;-77
2022/10/15 02:04:20;;;;;;;9.20;6.20;;;;;;;12.57;100.00;94875.94;5108082;28;20716;-76
2022/10/15 02:06:53;;;;;;;8.97;6.30;;;;;;;12.61;100.00;94884.88;5108183;28;20296;-79
2022/10/15 02:09:28;;;;;;;10.43;6.27;;;;;;;12.60;100.00;94874.69;5107354;28;20207;-78
2022/10/15 02:12:05;;;;;;;10.07;6.33;;;;;;;12.47;100.00;94878.28;5108213;28;20219;-78
2022/10/15 02:14:37;;;;;;;10.90;6.10;;;;;;;12.54;100.00;94876.38;5105658;28;20196;-79
2022/10/15 02:17:10;;;;;;;11.67;6.73;;;;;;;12.45;100.00;94878.53;5108532;28;20272;-78
2022/10/15 02:19:44;;;;;;;8.60;6.17;;;;;;;12.52;100.00;94868.00;5108371;28;20234;-78
2022/10/15 02:22:17;;;;;;;8.40;6.00;;;;;;;12.55;100.00;94871.97;5102122;28;20618;-77
2022/10/15 02:24:51;;;;;;;10.37;5.73;;;;;;;12.46;100.00;94882.72;5107873;28;20312;-79
2022/10/15 02:27:20;;;;;;;12.27;6.37;;;;;;;12.44;100.00;94869.09;5107515;28;21537;-77
2022/10/15 02:29:50;;;;;;;9.03;5.70;;;;;;;12.46;100.00;94879.31;5107922;28;20204;-77
2022/10/15 02:32:22;;;;;;;8.60;6.17;;;;;;;12.10;100.00;94877.63;5108011;28;20330;-79
2022/10/15 02:34:50;;;;;;;8.43;5.90;;;;;;;11.82;100.00;94883.41;5106846;28;20204;-78
2022/10/15 02:37:22;;;;;;;8.27;6.40;;;;;;;11.70;100.00;94879.94;5107059;28;20212;-78
2022/10/15 02:39:48;;;;;;;12.23;6.57;;;;;;;11.84;100.00;94877.97;5107812;28;20260;-77
2022/10/15 02:42:17;;;;;;;10.70;6.40;;;;;;;11.92;100.00;94877.66;5107365;28;20196;-79
2022/10/15 02:44:44;;;;;;;8.43;6.40;;;;;;;12.04;100.00;94886.31;5106962;28;20220;-77
2022/10/15 02:47:11;;;;;;;11.33;6.00;;;;;;;12.07;100.00;94880.66;5108023;28;20208;-77
2022/10/15 02:49:39;;;;;;;8.63;5.77;;;;;;;12.18;100.00;94879.91;5107187;28;20639;-77
2022/10/15 02:52:06;;;;;;;8.20;5.70;;;;;;;12.34;100.00;94884.50;5107511;28;20211;-77
2022/10/15 02:54:33;;;;;;;9.07;5.50;;;;;;;12.44;100.00;94878.72;5107531;28;20283;-78
2022/10/15 02:57:00;;;;;;;7.80;5.67;;;;;;;12.45;100.00;94882.94;5108229;28;20260;-78
2022/10/15 02:59:27;;;;;;;9.83;5.67;;;;;;;12.48;100.00;94878.06;5107193;28;20673;-77
2022/10/15 03:01:54;;;;;;;8.97;5.47;;;;;;;12.51;100.00;94876.81;5107918;28;20222;-76
2022/10/15 03:04:21;;;;;;;7.43;5.27;;;;;;;12.49;100.00;94866.63;5106308;28;21043;-77
2022/10/15 03:06:49;;;;;;;8.90;5.37;;;;;;;12.63;100.00;94877.66;5107476;28;20208;-77
2022/10/15 03:09:16;;;;;;;8.10;5.00;;;;;;;12.55;100.00;94879.78;5107331;28;20200;-77
2022/10/15 03:11:43;;;;;;;8.47;5.77;;;;;;;12.52;100.00;94876.59;5108252;28;20200;-77
2022/10/15 03:14:09;;;;;;;7.57;5.20;;;;;;;12.52;100.00;94873.97;5107875;28;20208;-75
2022/10/15 03:16:36;;;;;;;9.73;5.40;;;;;;;12.59;100.00;94870.47;5107265;28;20211;-76
2022/10/15 03:19:03;;;;;;;7.70;5.63;;;;;;;12.61;100.00;94871.06;5107578;28;20258;-76
2022/10/15 03:21:30;;;;;;;9.93;5.50;;;;;;;12.67;100.00;94870.19;5107734;28;20200;-77
2022/10/15 03:23:58;;;;;;;9.23;5.80;;;;;;;12.74;100.00;94876.88;5106728;28;20204;-77
2022/10/15 03:26:25;;;;;;;9.27;5.57;;;;;;;12.71;100.00;94886.94;5107493;28;20222;-76
2022/10/15 03:28:52;;;;;;;9.43;5.93;;;;;;;12.68;100.00;94888.19;5107373;28;20204;-77
2022/10/15 03:31:19;;;;;;;9.67;5.70;;;;;;;12.71;100.00;94882.53;5106671;28;20249;-77
2022/10/15 03:33:46;;;;;;;9.70;5.50;;;;;;;12.69;100.00;94881.16;5106455;28;20215;-78
2022/10/15 03:36:12;;;;;;;11.43;5.93;;;;;;;12.23;100.00;94887.88;5106785;28;20196;-77
2022/10/15 03:38:39;;;;;;;8.43;5.87;;;;;;;11.92;100.00;94886.25;5106644;28;20736;-77
2022/10/15 03:41:08;;;;;;;11.30;6.57;;;;;;;11.66;100.00;94873.53;5106426;28;20323;-77
2022/10/15 03:43:34;;;;;;;11.17;6.60;;;;;;;11.78;100.00;94877.03;5107315;28;20200;-79
2022/10/15 03:46:04;;;;;;;10.57;6.40;;;;;;;11.88;100.00;94879.94;5107230;28;20224;-79
2022/10/15 03:48:31;;;;;;;22.00;6.93;;;;;;;11.95;100.00;94879.81;5106288;28;20623;-79
2022/10/15 03:50:58;;;;;;;8.30;6.17;;;;;;;11.92;100.00;94882.88;5107990;28;20257;-79
2022/10/15 03:53:25;;;;;;;9.70;5.93;;;;;;;12.06;100.00;94889.50;5111483;28;20196;-79
2022/10/15 03:55:52;;;;;;;12.07;6.47;;;;;;;12.06;100.00;94894.72;5111584;28;20200;-78
2022/10/15 03:58:20;;;;;;;10.10;6.70;;;;;;;12.09;100.00;94886.44;5110046;28;20289;-79
2022/10/15 04:00:46;;;;;;;10.20;6.47;;;;;;;12.08;100.00;94900.50;5110905;28;20207;-78
2022/10/15 04:03:14;;;;;;;9.40;6.70;;;;;;;12.21;100.00;94895.09;5110006;28;20212;-78
2022/10/15 04:05:41;;;;;;;9.40;6.20;;;;;;;12.21;100.00;94900.31;5111070;28;20716;-77
2022/10/15 04:08:08;;;;;;;9.67;6.53;;;;;;;12.10;100.00;94892.44;5110537;28;20200;-77
2022/10/15 04:10:34;;;;;;;9.80;6.67;;;;;;;12.16;100.00;94892.38;5108609;28;20211;-78
2022/10/15 04:13:01;;;;;;;11.20;6.70;;;;;;;12.15;100.00;94898.59;5110203;28;20200;-77
2022/10/15 04:15:29;;;;;;;12.73;6.60;;;;;;;12.13;100.00;94903.22;5109087;28;20200;-78
2022/10/15 04:17:56;;;;;;;12.60;6.57;;;;;;;12.08;100.00;94894.50;5110837;28;20203;-78
2022/10/15 04:20:23;;;;;;;8.37;6.60;;;;;;;12.15;100.00;94897.81;5110167;28;20772;-77
2022/10/15 04:22:50;;;;;;;11.23;7.10;;;;;;;12.06;100.00;94899.94;5110902;28;20215;-78
2022/10/15 04:25:17;;;;;;;9.40;6.57;;;;;;;12.14;100.00;94891.00;5107330;28;20794;-79
2022/10/15 04:27:44;;;;;;;13.07;7.30;;;;;;;12.03;100.00;94899.56;5111366;28;20208;-78
2022/10/15 04:30:13;;;;;;;8.57;6.60;;;;;;;11.74;100.00;94893.31;5109840;28;20665;-76
2022/10/15 04:32:41;;;;;;;11.73;7.50;;;;;;;11.47;100.00;94892.78;5109814;28;20206;-82
2022/10/15 04:35:08;;;;;;;12.93;7.83;;;;;;;11.53;100.00;94893.72;5109874;28;20214;-76
2022/10/15 04:37:35;;;;;;;11.73;7.00;;;;;;;11.66;100.00;94889.16;5109901;28;20257;-76
2022/10/15 04:40:03;;;;;;;11.17;7.80;;;;;;;11.75;100.00;94900.91;5109980;28;20235;-78
2022/10/15 04:42:30;;;;;;;12.47;7.47;;;;;;;11.82;100.00;94903.44;5108225;28;20199;-74
2022/10/15 04:44:57;;;;;;;13.63;7.20;;;;;;;11.93;100.00;94900.09;5110045;28;20204;-73
2022/10/15 04:47:24;;;;;;;16.67;6.97;;;;;;;12.06;100.00;94912.97;5109890;28;20199;-74
2022/10/15 04:49:52;;;;;;;10.87;7.40;;;;;;;12.14;100.00;94914.44;5109634;28;20212;-74
2022/10/15 04:52:19;;;;;;;10.27;7.27;;;;;;;12.22;100.00;94919.34;5109399;28;21582;-75
2022/10/15 04:54:46;;;;;;;10.93;7.27;;;;;;;12.29;100.00;94923.47;5109898;28;20257;-74
2022/10/15 04:57:13;;;;;;;12.77;7.57;;;;;;;12.40;100.00;94922.72;5109038;28;20200;-74
2022/10/15 04:59:40;;;;;;;13.37;7.83;;;;;;;12.47;100.00;94920.78;5109471;28;20270;-74
2022/10/15 05:02:07;;;;;;;12.67;7.30;;;;;;;12.50;100.00;94920.34;5110093;28;20611;-79
2022/10/15 05:04:34;;;;;;;17.80;7.37;;;;;;;12.59;100.00;94923.44;5109022;28;20284;-74
2022/10/15 05:07:03;;;;;;;13.60;7.40;;;;;;;12.49;100.00;94924.00;5108648;28;20224;-75
2022/10/15 05:09:30;;;;;;;11.00;7.53;;;;;;;12.61;100.00;94925.81;5106747;28;20203;-74
2022/10/15 05:11:56;;;;;;;13.83;7.77;;;;;;;12.66;100.00;94931.16;5107472;28;20195;-82
2022/10/15 05:14:23;;;;;;;11.17;7.07;;;;;;;12.74;100.00;94930.84;5109391;28;20626;-81
2022/10/15 05:16:50;;;;;;;12.77;7.40;;;;;;;12.75;100.00;94929.81;5109373;28;20211;-80
2022/10/15 05:19:17;;;;;;;12.53;7.63;;;;;;;12.78;100.00;94924.97;5113490;28;20204;-82
2022/10/15 05:21:44;;;;;;;14.37;7.83;;;;;;;12.86;100.00;94931.66;5111885;28;20718;-87
2022/10/15 05:24:12;;;;;;;11.83;7.53;;;;;;;12.90;100.00;94938.03;5109756;28;20192;-83
2022/10/15 05:26:39;;;;;;;11.97;7.73;;;;;;;12.84;100.00;94939.69;5109698;28;20697;-78
2022/10/15 05:29:06;;;;;;;13.10;7.50;;;;;;;12.78;100.00;94939.81;5107451;28;20611;-80
2022/10/15 05:31:34;;;;;;;14.03;7.67;;;;;;;12.49;100.00;94941.44;5106420;28;20230;-79
2022/10/15 05:34:07;;;;;;;12.73;8.03;;;;;;;12.11;100.00;94940.94;5110827;28;20723;-79
2022/10/15 05:36:35;;;;;;;12.40;8.10;;;;;;;11.93;100.00;94934.75;5106627;28;20571;-79
2022/10/15 05:39:09;;;;;;;13.47;8.27;;;;;;;11.98;100.00;94943.72;5108973;28;20248;-79
2022/10/15 05:41:37;;;;;;;10.93;7.53;;;;;;;12.10;100.00;94950.56;5107657;28;20242;-79
2022/10/15 05:44:04;;;;;;;11.93;7.67;;;;;;;12.15;100.00;94947.31;5108530;28;20231;-77
2022/10/15 05:46:31;;;;;;;16.23;8.00;;;;;;;12.31;100.00;94952.72;5108846;28;20242;-77
2022/10/15 05:49:00;;;;;;;17.53;7.47;;;;;;;12.38;100.00;94969.03;5109278;28;20200;-80
2022/10/15 05:51:27;;;;;;;16.23;7.70;;;;;;;12.52;100.00;94967.84;5108260;28;20222;-77
2022/10/15 05:53:56;;;;;;;12.53;7.50;;;;;;;12.53;100.00;94956.41;5107201;28;20220;-75
2022/10/15 05:56:23;;;;;;;14.63;7.17;;;;;;;12.57;100.00;94955.97;5107573;28;20211;-77
2022/10/15 05:58:51;;;;;;;10.27;7.53;;;;;;;12.66;100.00;94965.06;5104965;28;20203;-77
2022/10/15 06:01:19;;;;;;;12.03;6.97;;;;;;;12.73;100.00;94965.75;5107790;28;20269;-76
2022/10/15 06:03:45;;;;;;;10.20;6.60;;;;;;;12.76;100.00;94960.09;5107429;28;20189;-79
2022/10/15 06:06:17;;;;;;;15.90;7.50;;;;;;;12.78;100.00;94969.31;5106723;28;20227;-79
2022/10/15 06:08:44;;;;;;;13.13;7.30;;;;;;;12.83;100.00;94966.00;5107030;28;20714;-86
2022/10/15 06:11:11;;;;;;;9.67;6.40;;;;;;;12.94;100.00;94967.84;5109611;28;20211;-78
2022/10/15 06:13:39;;;;;;;12.13;7.40;;;;;;;12.93;100.00;94972.25;5107360;28;20200;-75
2022/10/15 06:16:10;;;;;;;13.50;7.40;;;;;;;12.93;100.00;94974.88;5105218;28;20303;-76
2022/10/15 06:18:38;;;;;;;11.57;7.17;;;;;;;12.75;100.00;94972.34;5105233;28;20204;-77
2022/10/15 06:21:06;;;;;;;18.20;8.57;;;;;;;12.46;100.00;94968.75;5105627;28;20204;-76
2022/10/15 06:23:33;;;;;;;14.30;7.80;;;;;;;12.15;100.00;94973.38;5104918;28;20196;-77
2022/10/15 06:26:03;;;;;;;12.80;7.80;;;;;;;12.06;100.00;94979.91;5105618;28;20250;-75
2022/10/15 06:28:29;;;;;;;14.03;7.63;;;;;;;12.18;100.00;94973.72;5106822;28;20254;-76
2022/10/15 06:30:58;;;;;;;12.43;7.40;;;;;;;12.27;100.00;94974.19;5106657;28;20223;-77
2022/10/15 06:33:27;;;;;;;20.13;7.57;;;;;;;12.44;100.00;94985.59;5105870;28;20235;-76
2022/10/15 06:35:54;;;;;;;13.67;7.77;;;;;;;12.57;100.00;94987.25;5105452;28;20203;-76
2022/10/15 06:38:24;;;;;;;19.67;7.60;;;;;;;12.69;100.00;94990.69;5106719;28;20212;-76
2022/10/15 06:40:51;;;;;;;14.83;7.83;;;;;;;12.83;100.00;94998.09;5106545;28;20293;-76
2022/10/15 06:43:18;;;;;;;13.57;7.63;;;;;;;12.93;100.00;94997.53;5107171;28;20203;-77
2022/10/15 06:45:45;;;;;;;12.43;7.70;;;;;;;13.02;100.00;94997.00;5105885;28;20224;-76
2022/10/15 06:48:11;;;;;;;12.03;7.63;;;;;;;13.01;100.00;94985.00;5106864;28;20200;-77
2022/10/15 06:50:40;;;;;;;10.20;7.13;;;;;;;13.19;100.00;94996.41;5106175;28;20196;-76
2022/10/15 06:53:08;;;;;;;12.93;8.13;;;;;;;13.26;100.00;94997.06;5106540;28;20204;-76
2022/10/15 06:55:35;;;;;;;12.53;7.50;;;;;;;13.28;100.00;95003.66;5107158;28;20226;-75
2022/10/15 06:58:02;;;;;;;12.83;7.43;;;;;;;13.14;100.00;94999.66;5105687;28;20199;-76
2022/10/15 07:00:29;;;;;;;11.70;7.37;;;;;;;13.27;100.00;95001.28;5105907;28;20598;-76
2022/10/15 07:02:56;;;;;;;15.93;7.73;;;;;;;13.32;100.00;95002.19;5107008;28;20204;-77
2022/10/15 07:05:26;;;;;;;16.50;7.60;;;;;;;13.17;100.00;95006.25;5106889;28;20204;-78
2022/10/15 07:07:55;;;;;;;11.70;8.33;;;;;;;13.23;100.00;95013.19;5106489;28;20215;-75
2022/10/15 07:10:22;;;;;;;13.37;8.17;;;;;;;12.93;100.00;95007.97;5107309;28;20208;-76
2022/10/15 07:12:48;;;;;;;12.43;8.00;;;;;;;12.55;100.00;95010.94;5107673;28;20204;-76
2022/10/15 07:15:16;;;;;;;14.20;8.53;;;;;;;12.58;100.00;95015.72;5107431;28;20200;-77
2022/10/15 07:17:47;;;;;;;12.53;7.83;;;;;;;12.65;100.00;95010.41;5107496;28;20200;-76
2022/10/15 07:20:14;;;;;;;11.07;7.30;;;;;;;12.75;100.00;95019.28;5107376;28;20283;-76
2022/10/15 07:22:41;;;;;;;13.00;7.97;;;;;;;12.88;100.00;95011.28;5106911;28;20231;-77
2022/10/15 07:25:10;;;;;;;15.23;8.50;;;;;;;12.98;100.00;95010.75;5108709;28;20223;-76
2022/10/15 07:27:42;;;;;;;13.27;7.93;;;;;;;13.03;100.00;95011.66;5111327;28;20219;-76
2022/10/15 07:30:10;;;;;;;16.03;8.17;;;;;;;13.15;100.00;95011.72;5110787;28;20200;-77
2022/10/15 07:32:37;;;;;;;15.03;8.60;;;;;;;13.16;100.00;95013.28;5111131;28;20207;-77
2022/10/15 07:35:04;;;;;;;19.97;8.33;;;;;;;13.32;100.00;95011.84;5111239;28;20247;-77
2022/10/15 07:37:31;;;;;;;14.20;8.00;;;;;;;13.30;98.95;95017.28;5110790;28;20228;-76
2022/10/15 07:39:58;;;;;;;14.60;8.50;;;;;;;13.26;98.70;95010.94;5111141;28;20250;-78
2022/10/15 07:42:26;;;;;;;19.33;9.03;;;;;;;13.37;97.30;95011.94;5105836;28;20226;-77
2022/10/15 07:44:53;;;;;;;12.97;7.87;;;;;;;13.48;98.07;95017.19;5109201;28;20200;-77
2022/10/15 07:47:20;;;;;;;13.57;7.67;;;;;;;13.47;96.35;95017.41;5107668;28;20235;-77
2022/10/15 07:49:47;;;;;;;16.17;7.97;;;;;;;13.57;96.07;95025.47;5110528;28;20333;-77
2022/10/15 07:52:14;;;;;;;13.23;7.87;;;;;;;13.56;95.91;95014.22;5110930;28;20207;-76
2022/10/15 07:54:43;;;;;;;14.27;7.47;;;;;;;13.53;94.07;95017.28;5108457;28;20207;-76
2022/10/15 07:57:10;;;;;;;11.70;7.43;;;;;;;13.49;93.55;95017.97;5108706;28;20192;-77
2022/10/15 07:59:38;;;;;;;14.63;7.07;;;;;;;13.46;94.25;95023.66;5108778;28;20211;-75
2022/10/15 08:02:05;;;;;;;10.93;7.50;;;;;;;13.26;96.72;95023.97;5106900;28;20616;-76
2022/10/15 08:04:33;;;;;;;13.77;7.40;;;;;;;13.05;98.81;95027.06;5109304;28;20196;-76
2022/10/15 08:07:00;;;;;;;12.47;7.23;;;;;;;13.18;97.72;95024.31;5108286;28;20216;-76
2022/10/15 08:09:27;;;;;;;12.27;7.13;;;;;;;13.34;96.64;95026.25;5110539;28;20207;-76
2022/10/15 08:11:54;;;;;;;10.33;7.03;;;;;;;13.53;96.36;95019.13;5109401;28;20210;-77
2022/10/15 08:14:21;;;;;;;12.97;7.63;;;;;;;13.73;93.79;95024.00;5109807;28;20231;-76
2022/10/15 08:16:49;;;;;;;11.77;6.70;;;;;;;13.92;92.59;95018.41;5109855;28;20204;-78
2022/10/15 08:19:20;;;;;;;13.90;6.43;;;;;;;14.10;90.75;95018.28;5109461;28;20200;-77
2022/10/15 08:21:47;;;;;;;10.03;6.40;;;;;;;14.27;89.70;95012.31;5109251;28;20214;-77
2022/10/15 08:24:14;;;;;;;11.43;6.70;;;;;;;14.37;89.22;95009.97;5108558;28;20204;-77
2022/10/15 08:26:40;;;;;;;9.37;6.77;;;;;;;14.51;87.24;95009.47;5108071;28;20224;-77
2022/10/15 08:29:07;;;;;;;11.10;6.90;;;;;;;14.62;86.08;95007.81;5109234;28;20208;-76
2022/10/15 08:31:34;;;;;;;13.03;5.90;;;;;;;14.72;85.10;95008.78;5109017;28;20616;-77
2022/10/15 08:34:02;;;;;;;9.57;6.93;;;;;;;14.52;86.08;94997.94;5109744;28;20200;-76
2022/10/15 08:36:29;;;;;;;14.00;6.87;;;;;;;14.13;88.83;95003.97;5108172;28;20219;-76
2022/10/15 08:38:56;;;;;;;11.00;6.27;;;;;;;14.13;88.64;94998.72;5108391;28;20208;-77
2022/10/15 08:41:29;;;;;;;8.83;6.47;;;;;;;14.47;87.48;94995.25;5108402;28;20239;-76
2022/10/15 08:43:56;;;;;;;9.77;6.37;;;;;;;14.92;86.09;94991.88;5109541;28;20220;-77
2022/10/15 08:46:31;;;;;;;10.47;6.37;;;;;;;15.32;83.64;94995.16;5108715;28;20247;-77
2022/10/15 08:49:00;;;;;;;12.13;6.53;;;;;;;15.69;81.04;95003.31;5109897;28;20203;-75
2022/10/15 08:51:34;;;;;;;11.57;6.47;;;;;;;16.20;79.01;95000.31;5108341;28;20208;-76
2022/10/15 08:54:04;;;;;;;11.67;6.17;;;;;;;16.65;76.10;95000.06;5106565;28;20227;-77
2022/10/15 08:56:35;;;;;;;7.87;5.83;;;;;;;17.03;74.56;94999.13;5106219;28;20214;-76
2022/10/15 08:59:09;;;;;;;12.43;6.33;;;;;;;17.42;72.58;95011.03;5108319;28;20287;-77
2022/10/15 09:01:42;;;;;;;8.13;6.13;;;;;;;17.62;71.53;95015.69;5107027;28;20202;-77
2022/10/15 09:04:22;;;;;;;8.90;6.00;;;;;;;17.89;70.73;95019.00;5109256;28;20211;-76
2022/10/15 09:06:56;;;;;;;8.70;5.90;;;;;;;18.39;68.93;95013.22;5108802;28;20733;-77
2022/10/15 09:09:32;;;;;;;9.10;6.57;;;;;;;17.95;67.91;95018.00;5109760;28;20199;-76
2022/10/15 09:12:08;;;;;;;8.83;5.83;;;;;;;17.99;68.81;95013.81;5109575;28;20191;-76
2022/10/15 09:14:40;;;;;;;16.93;6.13;;;;;;;18.12;68.96;95021.25;5106320;28;20203;-76
2022/10/15 09:17:23;;;;;;;11.87;6.27;;;;;;;18.23;68.35;95016.03;5109073;28;20192;-76
2022/10/15 09:19:53;;;;;;;12.10;6.27;;;;;;;18.36;67.69;95015.56;5109077;28;20204;-77
2022/10/15 09:22:26;;;;;;;10.13;5.97;;;;;;;18.86;66.29;95010.50;5109200;28;20219;-76
2022/10/15 09:24:53;;;;;;;13.50;6.53;;;;;;;19.36;63.68;95012.41;5109489;28;20196;-77
2022/10/15 09:27:28;;;;;;;10.57;5.72;;;;;;;19.81;61.42;95015.06;5108940;28;20228;-76
2022/10/15 09:30:04;;;;;;;8.93;6.00;;;;;;;20.33;60.16;95008.63;5109422;28;20291;-76
2022/10/15 09:32:36;;;;;;;10.45;5.68;;;;;;;20.16;58.36;94989.63;5108858;28;20750;-76
2022/10/15 09:35:14;;;;;;;9.55;5.53;;;;;;;19.71;60.38;95009.00;5106028;28;20576;-76
2022/10/15 09:37:50;;;;;;;8.65;5.50;;;;;;;19.11;61.70;94999.19;5106618;28;20226;-77
2022/10/15 09:40:39;;;;;;;9.95;5.53;;;;;;;20.04;60.00;95016.31;5107130;28;20775;-78
2022/10/15 09:43:06;;;;;;;6.75;5.40;;;;;;;20.52;58.47;95006.94;5106454;28;20204;-77
2022/10/15 09:45:33;;;;;;;10.88;5.00;;;;;;;21.32;55.52;95013.66;5105774;28;20674;-76
2022/10/15 09:48:02;;;;;;;6.85;5.40;;;;;;;22.01;53.08;95020.50;5104231;28;20220;-77
2022/10/15 09:50:39;;;;;;;9.38;5.68;;;;;;;22.57;51.64;95018.81;5106922;28;20208;-76
2022/10/15 09:53:17;;;;;;;8.90;5.18;;;;;;;23.10;49.44;95011.53;5106872;28;20666;-76
2022/10/15 09:55:49;;;;;;;7.53;5.00;;;;;;;23.51;47.72;95013.59;5106037;28;20210;-78
2022/10/15 09:58:20;;;;;;;5.25;4.40;;;;;;;23.61;45.66;95018.72;5088113;28;20200;-74
2022/10/15 10:00:57;;;;;;;5.82;5.07;;;;;;;23.95;45.86;95027.19;5107218;28;20207;-73
2022/10/15 10:03:26;;;;;;;7.75;4.43;;;;;;;24.27;44.94;95029.81;5107366;28;20268;-74
2022/10/15 10:06:00;;;;;;;6.53;4.60;;;;;;;24.51;44.36;95026.19;5107110;28;20219;-73
2022/10/15 10:08:33;;;;;;;7.13;4.80;;;;;;;24.70;43.48;95032.19;5108270;28;20207;-73
2022/10/15 10:11:03;;;;;;;5.15;4.63;;;;;;;25.11;41.44;95022.28;5106819;28;20200;-72
2022/10/15 10:13:32;;;;;;;13.65;5.88;;;;;;;25.58;40.91;95036.97;5107138;28;20632;-74
2022/10/15 10:16:04;;;;;;;16.00;8.70;;;;;;;25.88;41.22;95038.91;5107673;28;20207;-73
2022/10/15 10:18:32;;;;;;;12.52;6.63;;;;;;;26.06;39.84;95039.00;5107215;28;20195;-73
2022/10/15 10:21:00;;;;;;;6.15;4.80;;;;;;;26.22;37.99;95030.31;5107738;28;20207;-74
2022/10/15 10:23:36;;;;;;;11.52;4.70;;;;;;;26.37;38.89;95037.94;5108308;28;20585;-73
2022/10/15 10:26:05;;;;;;;9.90;4.53;;;;;;;26.58;37.99;95027.47;5104801;28;20202;-73
2022/10/15 10:28:35;;;;;;;5.85;4.60;;;;;;;27.02;36.78;95023.84;5107330;28;20223;-73
2022/10/15 10:31:05;;;;;;;6.43;4.57;;;;;;;27.38;36.55;95018.22;5107747;28;20204;-73
2022/10/15 10:33:37;;;;;;;5.10;4.50;;;;;;;27.78;35.61;95024.19;5105213;28;20604;-73
2022/10/15 10:36:06;;;;;;;6.45;4.32;;;;;;;28.07;34.64;95027.78;5107198;28;20212;-73
2022/10/15 10:38:37;;;;;;;6.20;4.28;;;;;;;27.38;34.46;95024.38;5107510;28;20211;-74
2022/10/15 10:41:06;;;;;;;7.05;4.05;;;;;;;27.83;34.29;95032.84;5107335;28;20693;-72
2022/10/15 10:43:35;;;;;;;6.22;4.53;;;;;;;27.52;33.56;95024.22;5108383;28;20215;-73
2022/10/15 10:46:05;;;;;;;5.28;3.80;;;;;;;27.62;33.30;95031.16;5107648;28;20288;-73
2022/10/15 10:48:40;;;;;;;7.35;4.18;;;;;;;27.73;34.43;95024.38;5105330;28;20215;-73
2022/10/15 10:51:13;;;;;;;9.00;4.40;;;;;;;27.64;35.65;95016.38;5107994;28;20203;-74
2022/10/15 10:53:48;;;;;;;6.53;5.00;;;;;;;27.28;35.76;95016.66;5107907;28;20295;-74
2022/10/15 10:56:20;;;;;;;7.25;4.57;;;;;;;27.48;35.98;95016.06;5107999;28;20210;-73
2022/10/15 10:58:48;;;;;;;8.45;4.25;;;;;;;27.41;35.01;95014.94;5108682;28;20293;-74
2022/10/15 11:01:16;;;;;;;6.97;3.70;;;;;;;27.24;34.64;95009.59;5111887;28;20295;-73
2022/10/15 11:03:45;;;;;;;4.97;3.53;;;;;;;27.66;34.95;95005.34;5112310;28;20203;-73
2022/10/15 11:06:31;;;;;;;6.35;3.90;;;;;;;28.05;34.55;95013.19;5109956;28;20298;-72
2022/10/15 11:09:17;;;;;;;5.00;3.97;;;;;;;27.55;34.19;95008.34;5108922;28;20673;-73
2022/10/15 11:11:55;;;;;;;9.07;4.05;;;;;;;27.70;33.83;95003.63;5111315;28;20204;-73
2022/10/15 11:14:32;;;;;;;4.93;4.22;;;;;;;27.48;34.33;95010.72;5111280;28;20302;-73
2022/10/15 11:17:10;;;;;;;8.88;3.80;;;;;;;27.50;34.42;95013.09;5109279;28;20199;-73
2022/10/15 11:19:44;;;;;;;5.53;3.88;;;;;;;26.62;34.21;95009.78;5109993;28;20203;-73
2022/10/15 11:22:44;;;;;;;7.30;3.80;;;;;;;25.13;37.07;95001.50;5111247;28;20222;-75
2022/10/15 11:25:22;;;;;;;9.13;3.90;;;;;;;24.50;38.53;94998.03;5110238;28;20586;-76
2022/10/15 11:28:10;;;;;;;7.85;4.50;;;;;;;23.59;41.62;94989.84;5111831;28;20254;-77
2022/10/15 11:30:45;;;;;;;5.90;4.15;;;;;;;23.04;42.95;94994.09;5108269;28;20203;-76
2022/10/15 11:33:42;;;;;;;4.25;3.55;;;;;;;22.05;44.57;94995.03;5110581;28;20200;-76
2022/10/15 11:36:25;;;;;;;10.95;3.83;;;;;;;20.25;48.78;94986.22;5105941;28;20204;-76